Time;durP1;ratioP1;P1;durP2;ratioP2;P2;SDS_P1;SDS_P2;PMS_P1;PMS_P2;Temp;Humidity;BMP_temperature;BMP_pressure;BME280_temperature;BME280_humidity;BME280_pressure;Samples;Min_cycle;Max_cycle;Signal;HPM_P1;HPM_P2
2022/10/01 00:02:11;;;;;;;8.00;6.73;;;;;;;8.45;100.00;153530.91;5054931;28;20537;-85
2022/10/01 00:04:38;;;;;;;7.40;6.63;;;;;;;8.47;100.00;153536.06;5040401;28;20443;-85
2022/10/01 00:07:09;;;;;;;7.40;6.67;;;;;;;8.45;100.00;153530.91;5050324;28;20459;-85
2022/10/01 00:09:36;;;;;;;7.90;6.80;;;;;;;8.42;100.00;153523.16;5056417;28;20462;-85
2022/10/01 00:12:03;;;;;;;9.63;6.80;;;;;;;8.40;100.00;153518.00;5056559;28;20450;-85
2022/10/01 00:14:30;;;;;;;7.53;6.70;;;;;;;8.41;100.00;153520.59;5069301;28;20480;-86
2022/10/01 00:16:56;;;;;;;7.37;6.30;;;;;;;8.40;100.00;153518.00;5055239;28;20494;-85
2022/10/01 00:19:23;;;;;;;7.00;6.30;;;;;;;8.38;100.00;153512.84;5055099;28;20454;-85
2022/10/01 00:21:50;;;;;;;7.40;6.70;;;;;;;8.40;100.00;153518.00;5048598;28;20484;-85
2022/10/01 00:24:18;;;;;;;7.07;6.37;;;;;;;8.42;100.00;153523.16;5050164;28;20463;-85
2022/10/01 00:26:46;;;;;;;6.50;5.80;;;;;;;8.42;100.00;153523.16;5052306;28;20461;-86
2022/10/01 00:29:14;;;;;;;6.20;5.60;;;;;;;8.41;100.00;153519.28;5051759;28;20478;-85
2022/10/01 00:31:41;;;;;;;7.77;6.57;;;;;;;8.41;100.00;153520.59;5058273;28;20472;-86
2022/10/01 00:34:07;;;;;;;6.73;6.10;;;;;;;8.40;100.00;153516.69;5074570;28;20427;-85
2022/10/01 00:36:34;;;;;;;6.30;5.70;;;;;;;8.37;100.00;153510.22;5073411;28;20976;-85
2022/10/01 00:39:01;;;;;;;8.03;6.67;;;;;;;8.34;100.00;153501.22;5062316;28;20991;-86
2022/10/01 00:41:31;;;;;;;6.83;6.13;;;;;;;8.36;100.00;153507.69;5052676;28;20864;-85
2022/10/01 00:44:00;;;;;;;7.07;6.23;;;;;;;8.34;100.00;153502.47;5054510;28;20423;-86
2022/10/01 00:46:28;;;;;;;6.40;5.80;;;;;;;8.36;100.00;153507.69;5054860;28;20500;-86
2022/10/01 00:48:57;;;;;;;7.53;6.77;;;;;;;8.30;100.00;153492.16;5052032;28;20509;-86
2022/10/01 00:51:25;;;;;;;6.93;5.93;;;;;;;8.31;100.00;153494.72;5053883;28;20435;-85
2022/10/01 00:53:53;;;;;;;7.03;6.30;;;;;;;8.30;100.00;153490.84;5054206;28;20429;-85
2022/10/01 00:56:20;;;;;;;6.77;6.07;;;;;;;8.25;100.00;153479.19;5052746;28;20569;-85
2022/10/01 00:58:53;;;;;;;6.87;6.17;;;;;;;8.25;100.00;153477.88;5039697;28;20480;-85
2022/10/01 01:01:19;;;;;;;6.60;6.00;;;;;;;8.28;100.00;153485.69;5033355;28;20841;-85
2022/10/01 01:03:46;;;;;;;7.37;6.67;;;;;;;8.27;100.00;153484.41;5040396;28;20448;-86
2022/10/01 01:06:13;;;;;;;7.07;6.20;;;;;;;8.28;100.00;153487.00;5073572;28;20449;-85
2022/10/01 01:08:39;;;;;;;8.20;6.43;;;;;;;8.33;100.00;153499.91;5059804;28;20450;-85
2022/10/01 01:11:12;;;;;;;7.57;6.40;;;;;;;8.32;100.00;153497.31;5049625;28;20548;-85
2022/10/01 01:13:44;;;;;;;6.77;6.00;;;;;;;8.32;100.00;153497.31;5048688;28;20485;-85
2022/10/01 01:16:15;;;;;;;7.10;6.40;;;;;;;8.34;100.00;153502.47;5053231;28;20481;-86
2022/10/01 01:18:51;;;;;;;7.13;6.43;;;;;;;8.37;100.00;153510.22;5032393;28;20927;-86
2022/10/01 01:21:29;;;;;;;6.90;6.20;;;;;;;8.38;100.00;153511.53;5043426;28;20463;-85
2022/10/01 01:24:12;;;;;;;6.07;5.47;;;;;;;8.34;100.00;153501.22;5046571;28;20439;-85
2022/10/01 01:27:06;;;;;;;6.40;5.80;;;;;;;8.35;100.00;153503.78;5051854;28;20457;-85
2022/10/01 01:29:38;;;;;;;7.53;5.87;;;;;;;8.33;100.00;153499.91;5050329;28;20945;-85
2022/10/01 01:32:09;;;;;;;6.60;5.60;;;;;;;8.35;100.00;153503.78;5053590;28;20435;-86
2022/10/01 01:34:37;;;;;;;7.97;6.23;;;;;;;8.37;100.00;153508.94;5053515;28;20424;-85
2022/10/01 01:37:10;;;;;;;5.87;5.27;;;;;;;8.46;100.00;153533.53;5039413;28;20485;-85
2022/10/01 01:39:39;;;;;;;6.90;6.13;;;;;;;8.45;100.00;153529.63;5051536;28;20457;-85
2022/10/01 01:42:09;;;;;;;6.10;5.50;;;;;;;8.46;100.00;153532.22;5052278;28;20948;-85
2022/10/01 01:44:40;;;;;;;6.83;6.23;;;;;;;8.45;100.00;153530.91;5053150;28;20906;-85
2022/10/01 01:47:07;;;;;;;5.50;5.00;;;;;;;8.48;100.00;153537.38;5056330;28;20454;-85
2022/10/01 01:49:35;;;;;;;5.90;5.30;;;;;;;8.45;100.00;153529.63;5052236;28;20885;-85
2022/10/01 01:52:05;;;;;;;6.27;5.70;;;;;;;8.50;100.00;153542.53;5052605;28;20442;-85
2022/10/01 01:54:32;;;;;;;6.20;5.30;;;;;;;8.48;100.00;153538.69;5052614;28;20443;-85
2022/10/01 01:57:00;;;;;;;5.63;4.93;;;;;;;8.49;100.00;153541.28;5061506;28;20485;-85
2022/10/01 01:59:27;;;;;;;5.60;5.00;;;;;;;8.51;100.00;153545.13;5053436;28;20423;-85
2022/10/01 02:01:55;;;;;;;5.60;4.90;;;;;;;8.52;100.00;153549.00;5052612;28;20439;-85
2022/10/01 02:04:24;;;;;;;5.70;5.17;;;;;;;8.53;100.00;153551.59;5052063;28;20866;-86
2022/10/01 02:07:15;;;;;;;6.20;5.60;;;;;;;8.57;100.00;153560.66;5052188;28;20956;-85
2022/10/01 02:09:48;;;;;;;5.37;4.87;;;;;;;8.52;100.00;153549.00;5053104;28;20427;-85
2022/10/01 02:12:23;;;;;;;6.70;6.00;;;;;;;8.53;100.00;153551.59;5053180;28;20469;-85
2022/10/01 02:14:53;;;;;;;5.60;5.00;;;;;;;8.48;100.00;153538.69;5053124;28;20509;-85
2022/10/01 02:17:29;;;;;;;10.03;5.67;;;;;;;8.52;100.00;153549.00;5052985;28;20496;-85
2022/10/01 02:19:57;;;;;;;7.77;6.13;;;;;;;8.48;100.00;153537.38;5069510;28;20461;-85
2022/10/01 02:22:29;;;;;;;5.47;4.80;;;;;;;8.44;100.00;153528.34;5033701;28;20474;-85
2022/10/01 02:24:58;;;;;;;6.30;5.13;;;;;;;8.45;100.00;153530.91;5049749;28;20456;-86
2022/10/01 02:27:28;;;;;;;8.80;6.20;;;;;;;8.44;100.00;153528.34;5051079;28;20445;-85
2022/10/01 02:29:55;;;;;;;6.00;5.40;;;;;;;8.44;100.00;153528.34;5062717;28;20442;-86
2022/10/01 02:32:23;;;;;;;5.63;5.00;;;;;;;8.47;100.00;153536.06;5049041;28;20465;-86
2022/10/01 02:34:50;;;;;;;5.80;5.20;;;;;;;8.45;100.00;153530.91;5050012;28;20429;-85
2022/10/01 02:37:20;;;;;;;6.63;5.47;;;;;;;8.44;100.00;153528.34;5051570;28;20501;-86
2022/10/01 02:39:48;;;;;;;5.30;4.80;;;;;;;8.43;100.00;153525.75;5050880;28;20423;-86
2022/10/01 02:42:15;;;;;;;5.60;5.10;;;;;;;8.46;100.00;153532.22;5048501;28;20510;-86
2022/10/01 02:44:44;;;;;;;6.63;4.80;;;;;;;8.46;100.00;153533.53;5051146;28;20451;-86
2022/10/01 02:47:15;;;;;;;6.07;4.40;;;;;;;8.46;100.00;153532.22;5051603;28;20466;-86
2022/10/01 02:49:43;;;;;;;5.67;4.53;;;;;;;8.48;100.00;153537.38;5049967;28;20466;-85
2022/10/01 02:52:15;;;;;;;5.17;4.50;;;;;;;8.49;100.00;153541.28;5050611;28;20457;-85
2022/10/01 02:54:45;;;;;;;4.73;4.23;;;;;;;8.56;100.00;153559.38;5050997;28;20451;-86
2022/10/01 02:57:26;;;;;;;9.60;5.40;;;;;;;8.50;100.00;153542.53;5051978;28;20481;-85
2022/10/01 02:59:56;;;;;;;4.30;3.90;;;;;;;8.52;100.00;153547.75;5051145;28;20876;-86
2022/10/01 03:02:25;;;;;;;4.80;4.17;;;;;;;8.53;100.00;153551.59;5045200;28;20447;-86
2022/10/01 03:04:54;;;;;;;4.80;4.40;;;;;;;8.53;100.00;153550.28;5053481;28;20446;-85
2022/10/01 03:07:21;;;;;;;4.77;4.27;;;;;;;8.53;100.00;153551.59;5072283;28;20493;-85
2022/10/01 03:09:48;;;;;;;4.73;4.23;;;;;;;8.56;100.00;153558.06;5050191;28;20434;-86
2022/10/01 03:12:15;;;;;;;5.60;4.23;;;;;;;8.56;100.00;153559.38;5031559;28;20452;-86
2022/10/01 03:14:42;;;;;;;4.93;4.30;;;;;;;8.55;100.00;153556.75;5038590;28;20481;-85
2022/10/01 03:17:10;;;;;;;5.00;4.50;;;;;;;8.55;100.00;153555.50;5033937;28;20569;-85
2022/10/01 03:19:36;;;;;;;6.27;4.50;;;;;;;8.53;100.00;153551.59;5051433;28;20435;-85
2022/10/01 03:22:04;;;;;;;5.20;4.50;;;;;;;8.53;100.00;153551.59;5048290;28;20455;-86
2022/10/01 03:24:31;;;;;;;5.20;4.70;;;;;;;8.56;100.00;153559.38;5042034;28;20442;-85
2022/10/01 03:26:58;;;;;;;5.63;4.60;;;;;;;8.55;100.00;153555.50;5052861;28;20861;-86
2022/10/01 03:29:25;;;;;;;5.20;4.70;;;;;;;8.53;100.00;153551.59;5054058;28;20448;-86
2022/10/01 03:31:52;;;;;;;4.83;4.33;;;;;;;8.53;100.00;153551.59;5071528;28;20440;-86
2022/10/01 03:34:19;;;;;;;5.50;4.47;;;;;;;8.51;100.00;153545.13;5053620;28;20440;-86
2022/10/01 03:36:45;;;;;;;5.60;5.10;;;;;;;8.53;100.00;153551.59;5066477;28;20479;-86
2022/10/01 03:39:14;;;;;;;5.20;4.40;;;;;;;8.52;100.00;153549.00;5026060;28;20524;-86
2022/10/01 03:41:40;;;;;;;5.53;3.83;;;;;;;8.48;100.00;153538.69;5040963;28;20465;-86
2022/10/01 03:44:07;;;;;;;4.53;3.80;;;;;;;8.46;100.00;153533.53;5051729;28;20443;-86
2022/10/01 03:46:34;;;;;;;4.87;4.37;;;;;;;8.42;100.00;153523.16;5034342;28;20439;-85
2022/10/01 03:49:01;;;;;;;5.13;4.47;;;;;;;8.41;100.00;153520.59;5042473;28;20435;-86
2022/10/01 03:51:27;;;;;;;4.80;4.17;;;;;;;8.40;100.00;153518.00;5031938;28;20546;-86
2022/10/01 03:53:54;;;;;;;4.83;4.40;;;;;;;8.42;100.00;153521.84;5029142;28;20440;-86
2022/10/01 03:56:22;;;;;;;4.70;3.50;;;;;;;8.41;100.00;153520.59;5059071;28;20476;-86
2022/10/01 03:58:49;;;;;;;5.07;4.10;;;;;;;8.40;100.00;153518.00;5051710;28;20496;-86
2022/10/01 04:01:15;;;;;;;4.27;3.87;;;;;;;8.43;100.00;153524.47;5043167;28;20549;-86
2022/10/01 04:03:43;;;;;;;4.67;3.40;;;;;;;8.41;100.00;153520.59;5054398;28;20968;-85
2022/10/01 04:06:09;;;;;;;4.17;3.77;;;;;;;8.42;100.00;153523.16;5055382;28;20940;-86
2022/10/01 04:08:37;;;;;;;5.20;3.50;;;;;;;8.39;100.00;153515.38;5055068;28;20434;-86
2022/10/01 04:11:04;;;;;;;4.07;3.40;;;;;;;8.36;100.00;153507.69;5053828;28;20475;-85
2022/10/01 04:13:33;;;;;;;4.20;3.80;;;;;;;8.35;100.00;153503.78;5040193;28;20450;-85
2022/10/01 04:16:00;;;;;;;6.17;4.13;;;;;;;8.38;100.00;153512.84;5055729;28;20833;-86
2022/10/01 04:18:26;;;;;;;3.43;3.13;;;;;;;8.35;100.00;153505.06;5055439;28;20419;-85
2022/10/01 04:20:53;;;;;;;4.00;3.60;;;;;;;8.37;100.00;153510.22;5054093;28;20545;-85
2022/10/01 04:23:21;;;;;;;5.03;3.17;;;;;;;8.40;100.00;153518.00;5054843;28;20439;-86
2022/10/01 04:25:48;;;;;;;3.20;2.90;;;;;;;8.38;100.00;153512.84;5057252;28;20896;-86
2022/10/01 04:28:15;;;;;;;3.13;2.83;;;;;;;8.37;100.00;153510.22;5071316;28;20430;-86
2022/10/01 04:30:44;;;;;;;3.70;3.23;;;;;;;8.38;100.00;153512.84;5062255;28;20438;-86
2022/10/01 04:33:12;;;;;;;3.30;3.00;;;;;;;8.40;100.00;153518.00;5038593;28;20463;-86
2022/10/01 04:35:39;;;;;;;3.50;3.20;;;;;;;8.38;100.00;153511.53;5033459;28;20435;-85
2022/10/01 04:38:07;;;;;;;4.20;3.10;;;;;;;8.42;100.00;153523.16;5054852;28;20509;-86
2022/10/01 04:40:36;;;;;;;5.20;3.10;;;;;;;8.45;100.00;153529.63;5054408;28;20440;-86
2022/10/01 04:43:05;;;;;;;3.20;2.60;;;;;;;8.48;100.00;153538.69;5054358;28;20473;-86
2022/10/01 04:45:32;;;;;;;3.40;2.50;;;;;;;8.48;100.00;153537.38;5054493;28;20793;-86
2022/10/01 04:48:00;;;;;;;3.63;3.27;;;;;;;8.43;100.00;153524.47;5054400;28;20462;-86
2022/10/01 04:50:27;;;;;;;3.00;2.70;;;;;;;8.42;100.00;153523.16;5054594;28;20479;-86
2022/10/01 04:52:54;;;;;;;4.57;2.93;;;;;;;8.46;100.00;153532.22;5052072;28;20423;-86
2022/10/01 04:55:21;;;;;;;3.30;2.90;;;;;;;8.46;100.00;153532.22;5033672;28;20467;-86
2022/10/01 04:57:48;;;;;;;3.10;2.80;;;;;;;8.46;100.00;153533.53;5034302;28;20525;-86
2022/10/01 05:00:17;;;;;;;3.03;2.73;;;;;;;8.53;100.00;153550.28;5034491;28;20432;-86
2022/10/01 05:02:44;;;;;;;4.40;2.47;;;;;;;8.52;100.00;153549.00;5044078;28;20438;-86
2022/10/01 05:05:13;;;;;;;3.80;2.73;;;;;;;8.54;100.00;153554.19;5039717;28;20489;-86
2022/10/01 05:07:40;;;;;;;3.13;2.67;;;;;;;8.56;100.00;153558.06;5045389;28;20444;-86
2022/10/01 05:10:08;;;;;;;3.00;2.70;;;;;;;8.55;100.00;153556.75;5043400;28;20505;-86
2022/10/01 05:12:34;;;;;;;2.80;2.60;;;;;;;8.56;100.00;153558.06;5048499;28;20452;-86
2022/10/01 05:15:02;;;;;;;2.87;2.40;;;;;;;8.61;100.00;153570.97;5046254;28;20443;-86
2022/10/01 05:17:32;;;;;;;2.87;2.50;;;;;;;8.64;100.00;153577.44;5036990;28;21025;-86
2022/10/01 05:19:58;;;;;;;2.90;2.30;;;;;;;8.67;100.00;153585.22;5045039;28;20455;-86
2022/10/01 05:22:26;;;;;;;2.43;2.23;;;;;;;8.74;100.00;153603.28;5037677;28;20446;-86
2022/10/01 05:24:53;;;;;;;2.90;2.60;;;;;;;8.75;100.00;153605.91;5044915;28;20975;-86
2022/10/01 05:27:20;;;;;;;2.60;2.40;;;;;;;8.74;100.00;153603.28;5040144;28;20462;-86
2022/10/01 05:29:47;;;;;;;2.47;2.10;;;;;;;8.78;100.00;153614.97;5040374;28;20451;-86
2022/10/01 05:32:14;;;;;;;3.27;2.70;;;;;;;8.81;100.00;153621.41;5034475;28;20494;-86
2022/10/01 05:34:41;;;;;;;2.43;2.20;;;;;;;8.82;100.00;153625.28;5053813;28;20493;-86
2022/10/01 05:37:07;;;;;;;2.43;2.07;;;;;;;8.89;100.00;153642.13;5051064;28;20467;-86
2022/10/01 05:39:35;;;;;;;2.80;2.30;;;;;;;8.85;100.00;153631.75;5036943;28;20450;-86
2022/10/01 05:42:02;;;;;;;2.53;2.00;;;;;;;8.82;100.00;153625.28;5048043;28;20553;-86
2022/10/01 05:44:33;;;;;;;2.50;2.17;;;;;;;8.84;100.00;153629.19;5032603;28;20443;-86
2022/10/01 05:47:01;;;;;;;2.40;2.20;;;;;;;8.81;100.00;153622.72;5032022;28;20815;-86
2022/10/01 05:49:27;;;;;;;2.30;2.10;;;;;;;8.97;100.00;153664.09;5035485;28;20450;-86
2022/10/01 05:51:54;;;;;;;2.80;2.30;;;;;;;8.96;100.00;153660.19;5038944;28;20601;-86
2022/10/01 05:54:22;;;;;;;3.50;2.30;;;;;;;8.95;100.00;153657.59;5046142;28;20871;-86
2022/10/01 05:56:50;;;;;;;2.17;1.97;;;;;;;8.91;100.00;153647.28;5037478;28;20471;-86
2022/10/01 05:59:16;;;;;;;2.97;2.10;;;;;;;8.89;100.00;153642.13;5042669;28;20443;-86
2022/10/01 06:01:43;;;;;;;3.40;2.10;;;;;;;8.98;100.00;153666.66;5039184;28;20934;-86
2022/10/01 06:04:10;;;;;;;2.83;2.50;;;;;;;8.98;100.00;153666.66;5043012;28;20529;-86
2022/10/01 06:06:36;;;;;;;2.43;2.23;;;;;;;9.01;100.00;153674.44;5040870;28;20497;-86
2022/10/01 06:09:04;;;;;;;2.60;2.20;;;;;;;8.99;100.00;153667.97;5043236;28;20440;-86
2022/10/01 06:11:30;;;;;;;2.20;1.97;;;;;;;8.98;100.00;153666.66;5042544;28;20456;-86
2022/10/01 06:13:59;;;;;;;3.13;2.40;;;;;;;9.06;100.00;153686.06;5035421;28;20448;-87
2022/10/01 06:16:26;;;;;;;2.73;2.40;;;;;;;9.02;100.00;153675.72;5050972;28;20521;-87
2022/10/01 06:18:56;;;;;;;2.37;2.17;;;;;;;8.98;100.00;153665.34;5050758;28;20447;-87
2022/10/01 06:21:23;;;;;;;3.13;2.77;;;;;;;8.99;100.00;153667.97;5051714;28;20498;-88
2022/10/01 06:23:50;;;;;;;5.70;2.57;;;;;;;8.97;100.00;153662.81;5044526;28;20457;-88
2022/10/01 06:26:17;;;;;;;2.60;2.40;;;;;;;8.98;100.00;153665.34;5046009;28;20443;-88
2022/10/01 06:28:44;;;;;;;3.30;2.77;;;;;;;8.96;100.00;153660.19;5045389;28;20452;-88
2022/10/01 06:31:13;;;;;;;3.40;2.50;;;;;;;8.96;100.00;153660.19;5021985;28;20447;-87
2022/10/01 06:33:39;;;;;;;2.30;2.10;;;;;;;8.92;100.00;153651.13;5041746;28;20455;-88
2022/10/01 06:36:06;;;;;;;4.23;2.33;;;;;;;8.94;100.00;153655.03;5022632;28;20539;-88
2022/10/01 06:38:33;;;;;;;3.20;2.40;;;;;;;8.92;100.00;153649.88;5024232;28;20492;-88
2022/10/01 06:41:02;;;;;;;2.80;2.50;;;;;;;8.94;100.00;153656.34;5018365;28;20562;-88
2022/10/01 06:43:30;;;;;;;3.43;2.40;;;;;;;8.91;100.00;153648.56;5026682;28;20904;-88
2022/10/01 06:46:00;;;;;;;3.07;2.77;;;;;;;8.90;100.00;153644.66;5032376;28;20435;-88
2022/10/01 06:48:30;;;;;;;2.27;2.07;;;;;;;8.99;100.00;153667.97;5036226;28;20837;-88
2022/10/01 06:50:57;;;;;;;3.13;2.40;;;;;;;8.97;100.00;153662.81;5024143;28;20509;-88
2022/10/01 06:53:24;;;;;;;2.73;2.20;;;;;;;8.99;100.00;153667.97;5030474;28;20498;-87
2022/10/01 06:55:51;;;;;;;3.00;2.50;;;;;;;9.00;100.00;153671.81;5024642;28;20875;-88
2022/10/01 06:58:20;;;;;;;2.87;2.57;;;;;;;9.03;100.00;153678.28;5025756;28;20462;-88
2022/10/01 07:00:47;;;;;;;2.60;2.37;;;;;;;9.02;100.00;153675.72;5029958;28;20462;-87
2022/10/01 07:03:16;;;;;;;3.03;2.40;;;;;;;9.03;100.00;153679.59;5028345;28;20459;-87
2022/10/01 07:05:44;;;;;;;2.57;2.27;;;;;;;9.06;100.00;153687.34;5034428;28;20479;-87
2022/10/01 07:08:11;;;;;;;2.67;2.40;;;;;;;9.07;100.00;153689.97;5021233;28;20927;-88
2022/10/01 07:10:38;;;;;;;2.77;2.50;;;;;;;9.12;100.00;153701.59;5019377;28;20776;-88
2022/10/01 07:13:09;;;;;;;2.80;2.50;;;;;;;9.09;100.00;153693.81;5036530;28;20538;-87
2022/10/01 07:15:38;;;;;;;3.57;2.90;;;;;;;9.09;100.00;153693.81;5020834;28;20879;-88
2022/10/01 07:18:08;;;;;;;3.20;2.90;;;;;;;9.10;100.00;153696.41;5022271;28;21056;-88
2022/10/01 07:20:38;;;;;;;3.87;2.87;;;;;;;9.12;100.00;153702.88;5021082;28;20514;-88
2022/10/01 07:23:07;;;;;;;3.03;2.40;;;;;;;9.14;100.00;153708.03;5036033;28;20551;-89
2022/10/01 07:25:34;;;;;;;2.60;2.27;;;;;;;9.15;100.00;153710.66;5027798;28;20482;-88
2022/10/01 07:28:03;;;;;;;3.00;2.40;;;;;;;9.15;100.00;153709.34;5023514;28;20501;-89
2022/10/01 07:30:30;;;;;;;3.20;2.47;;;;;;;9.18;100.00;153718.41;5027731;28;20452;-89
2022/10/01 07:32:57;;;;;;;2.93;2.50;;;;;;;9.17;100.00;153714.50;5020134;28;20444;-89
2022/10/01 07:35:24;;;;;;;3.47;2.77;;;;;;;9.18;100.00;153717.13;5028183;28;20854;-89
2022/10/01 07:37:52;;;;;;;3.00;2.40;;;;;;;9.19;100.00;153719.69;5035498;28;20470;-88
2022/10/01 07:40:21;;;;;;;3.10;2.40;;;;;;;9.25;100.00;153735.22;5046732;28;20885;-89
2022/10/01 07:42:54;;;;;;;2.90;2.60;;;;;;;9.26;100.00;153736.50;5029544;28;20440;-89
2022/10/01 07:45:21;;;;;;;2.40;2.20;;;;;;;9.25;100.00;153735.22;5035823;28;20470;-89
2022/10/01 07:47:52;;;;;;;3.07;1.83;;;;;;;9.28;100.00;153741.69;5044397;28;20434;-89
2022/10/01 07:50:19;;;;;;;3.20;2.50;;;;;;;9.27;100.00;153739.06;5056515;28;20439;-89
2022/10/01 07:52:50;;;;;;;2.50;2.30;;;;;;;9.30;100.00;153748.13;5046473;28;20444;-83
2022/10/01 07:55:17;;;;;;;2.43;2.23;;;;;;;9.26;100.00;153737.81;5037005;28;20426;-90
2022/10/01 07:57:50;;;;;;;3.83;2.80;;;;;;;9.27;100.00;153740.38;5035536;28;20525;-90
2022/10/01 08:00:16;;;;;;;4.53;2.43;;;;;;;9.32;100.00;153752.03;5037256;28;20465;-90
2022/10/01 08:02:46;;;;;;;3.27;2.53;;;;;;;9.35;100.00;153761.06;5037129;28;20454;-89
2022/10/01 08:05:19;;;;;;;2.87;2.20;;;;;;;9.36;100.00;153763.66;5063287;28;20527;-89
2022/10/01 08:07:46;;;;;;;3.20;2.37;;;;;;;9.36;100.00;153763.66;5077249;28;20811;-89
2022/10/01 08:10:14;;;;;;;2.80;2.50;;;;;;;9.37;100.00;153764.97;5075782;28;20481;-89
2022/10/01 08:12:41;;;;;;;4.10;2.57;;;;;;;9.36;100.00;153763.66;5076498;28;20481;-88
2022/10/01 08:15:10;;;;;;;3.13;2.57;;;;;;;9.33;100.00;153755.91;5076550;28;20422;-89
2022/10/01 08:17:37;;;;;;;3.50;2.00;;;;;;;9.36;100.00;153763.66;5075114;28;20496;-88
2022/10/01 08:20:05;;;;;;;3.20;2.50;;;;;;;9.40;100.00;153774.00;5075201;28;20909;-88
2022/10/01 08:22:35;;;;;;;2.83;2.37;;;;;;;9.43;100.00;153781.75;5075285;28;20529;-88
2022/10/01 08:25:01;;;;;;;3.10;2.30;;;;;;;9.44;100.00;153784.38;5065119;28;20443;-89
2022/10/01 08:27:34;;;;;;;2.33;2.13;;;;;;;9.46;100.00;153789.53;5042540;28;20450;-89
2022/10/01 08:30:06;;;;;;;2.37;2.17;;;;;;;9.48;100.00;153793.41;5037307;28;20452;-90
2022/10/01 08:32:35;;;;;;;2.30;2.10;;;;;;;9.46;100.00;153789.53;5038087;28;20428;-90
2022/10/01 08:35:03;;;;;;;2.30;2.07;;;;;;;9.47;100.00;153790.84;5034667;28;20451;-89
2022/10/01 08:37:30;;;;;;;2.90;2.50;;;;;;;9.51;100.00;153802.47;5034724;28;20476;-89
2022/10/01 08:39:57;;;;;;;2.50;2.30;;;;;;;9.55;100.00;153811.53;5036106;28;20772;-90
2022/10/01 08:42:35;;;;;;;3.27;2.23;;;;;;;9.54;100.00;153810.25;5036100;28;20439;-89
2022/10/01 08:45:06;;;;;;;3.47;2.40;;;;;;;9.52;100.00;153805.06;5035124;28;20436;-89
2022/10/01 08:47:37;;;;;;;3.10;2.40;;;;;;;9.52;100.00;153805.06;5034267;28;20432;-89
2022/10/01 08:50:10;;;;;;;3.07;2.40;;;;;;;9.52;100.00;153805.06;5035074;28;20988;-89
2022/10/01 08:52:40;;;;;;;3.20;2.63;;;;;;;9.56;100.00;153814.09;5034894;28;20827;-89
2022/10/01 08:55:11;;;;;;;3.10;2.37;;;;;;;9.55;100.00;153812.84;5046266;28;20542;-89
2022/10/01 08:57:41;;;;;;;3.17;2.57;;;;;;;9.58;100.00;153820.56;5055065;28;20513;-89
2022/10/01 09:00:12;;;;;;;3.00;2.67;;;;;;;9.60;100.00;153824.47;5054431;28;20439;-89
2022/10/01 09:02:42;;;;;;;3.33;2.40;;;;;;;9.62;100.00;153829.63;5036686;28;20534;-89
2022/10/01 09:05:20;;;;;;;3.43;2.70;;;;;;;9.62;100.00;153830.94;5034139;28;20813;-89
2022/10/01 09:07:55;;;;;;;4.13;2.53;;;;;;;9.65;100.00;153838.72;5017619;28;20430;-89
2022/10/01 09:10:28;;;;;;;3.10;2.70;;;;;;;9.67;100.00;153843.88;5017940;28;20493;-89
2022/10/01 09:13:12;;;;;;;2.63;2.43;;;;;;;9.72;100.00;153855.50;5017722;28;20428;-89
2022/10/01 09:15:43;;;;;;;2.70;2.30;;;;;;;9.77;100.00;153869.75;5017758;28;20925;-89
2022/10/01 09:18:17;;;;;;;2.63;2.30;;;;;;;9.85;100.00;153889.16;5017970;28;20460;-89
2022/10/01 09:20:48;;;;;;;2.10;1.90;;;;;;;9.88;100.00;153896.91;5017591;28;20479;-89
2022/10/01 09:23:19;;;;;;;3.13;2.60;;;;;;;9.90;100.00;153902.06;5017622;28;20471;-89
2022/10/01 09:25:50;;;;;;;3.50;2.40;;;;;;;9.94;100.00;153911.16;5054486;28;20443;-89
2022/10/01 09:28:20;;;;;;;2.73;2.30;;;;;;;9.98;100.00;153921.53;5017956;28;20436;-89
2022/10/01 09:30:55;;;;;;;2.47;2.20;;;;;;;9.97;100.00;153918.91;5017653;28;20547;-89
2022/10/01 09:33:30;;;;;;;2.47;2.27;;;;;;;9.96;100.00;153917.63;5050432;28;20447;-89
2022/10/01 09:36:02;;;;;;;2.60;2.40;;;;;;;9.97;100.00;153920.22;5017428;28;20552;-89
2022/10/01 09:38:33;;;;;;;4.00;2.30;;;;;;;10.03;100.00;153934.47;5017245;28;20456;-90
2022/10/01 09:41:00;;;;;;;2.90;2.60;;;;;;;10.02;100.00;153931.88;5017323;28;20578;-89
2022/10/01 09:43:30;;;;;;;2.20;2.00;;;;;;;10.04;100.00;153937.03;5028704;28;20443;-90
2022/10/01 09:45:56;;;;;;;3.90;2.37;;;;;;;10.08;100.00;153947.41;5053444;28;20542;-90
2022/10/01 09:48:30;;;;;;;3.10;2.80;;;;;;;10.09;100.00;153949.97;5036775;28;20482;-89
2022/10/01 09:51:01;;;;;;;3.30;2.40;;;;;;;10.09;100.00;153949.97;5036974;28;20854;-90
2022/10/01 09:53:34;;;;;;;2.80;2.50;;;;;;;10.14;100.00;153963.00;5036813;28;20506;-89
2022/10/01 09:56:05;;;;;;;2.63;1.97;;;;;;;10.17;100.00;153972.03;5036769;28;20871;-90
2022/10/01 09:58:34;;;;;;;2.70;2.27;;;;;;;10.22;100.00;153983.66;5031022;28;20494;-75
2022/10/01 10:01:02;;;;;;;2.00;1.70;;;;;;;10.22;100.00;153983.66;5035728;28;20459;-75
2022/10/01 10:03:31;;;;;;;3.87;2.40;;;;;;;10.23;100.00;153987.56;5036222;28;20957;-75
2022/10/01 10:06:00;;;;;;;2.83;2.00;;;;;;;10.26;100.00;153995.34;5036281;28;20486;-74
2022/10/01 10:08:29;;;;;;;2.63;1.87;;;;;;;10.29;100.00;154001.81;5043877;28;20538;-74
2022/10/01 10:10:59;;;;;;;2.93;1.83;;;;;;;10.28;100.00;153999.22;5034726;28;20475;-75
2022/10/01 10:13:33;;;;;;;2.50;1.83;;;;;;;10.30;100.00;154004.38;5037243;28;20447;-74
2022/10/01 10:16:07;;;;;;;2.20;2.00;;;;;;;10.31;100.00;154007.00;5043887;28;20478;-74
2022/10/01 10:18:37;;;;;;;2.60;2.40;;;;;;;10.32;100.00;154010.91;5039215;28;20488;-74
2022/10/01 10:21:06;;;;;;;1.87;1.70;;;;;;;10.36;100.00;154019.94;5038638;28;20470;-74
2022/10/01 10:23:34;;;;;;;2.00;1.70;;;;;;;10.38;100.00;154025.09;5037061;28;20443;-74
2022/10/01 10:26:02;;;;;;;2.10;1.80;;;;;;;10.39;100.00;154027.69;5038798;28;20474;-74
2022/10/01 10:28:39;;;;;;;3.30;1.70;;;;;;;10.47;100.00;154047.13;5037249;28;20532;-74
2022/10/01 10:31:11;;;;;;;1.97;1.77;;;;;;;10.50;100.00;154056.19;5035472;28;20485;-74
2022/10/01 10:33:45;;;;;;;2.33;1.83;;;;;;;10.48;100.00;154051.03;5042884;28;20450;-74
2022/10/01 10:36:15;;;;;;;2.37;2.17;;;;;;;10.52;100.00;154060.06;5040136;28;20942;-74
2022/10/01 10:38:45;;;;;;;2.27;1.70;;;;;;;10.52;100.00;154060.06;5039359;28;20478;-74
2022/10/01 10:41:16;;;;;;;1.73;1.60;;;;;;;10.51;100.00;154057.50;5035808;28;20456;-74
2022/10/01 10:43:43;;;;;;;2.17;1.80;;;;;;;10.55;100.00;154069.13;5038806;28;20534;-74
2022/10/01 10:46:10;;;;;;;1.77;1.50;;;;;;;10.64;100.00;154092.47;5036319;28;20958;-74
2022/10/01 10:48:43;;;;;;;1.80;1.40;;;;;;;10.66;100.00;154097.63;5033524;28;20579;-74
2022/10/01 10:51:10;;;;;;;2.60;1.50;;;;;;;10.75;100.00;154120.91;5037424;28;20814;-74
2022/10/01 10:53:42;;;;;;;1.73;1.40;;;;;;;10.77;100.00;154126.13;5037434;28;20455;-75
2022/10/01 10:56:20;;;;;;;1.53;1.40;;;;;;;10.81;100.00;154136.47;5038057;28;20853;-74
2022/10/01 10:58:47;;;;;;;1.60;1.30;;;;;;;10.82;100.00;154139.06;5040936;28;20480;-75
2022/10/01 11:01:16;;;;;;;2.20;1.33;;;;;;;10.86;100.00;154149.41;5038987;28;20463;-74
2022/10/01 11:03:47;;;;;;;1.70;1.23;;;;;;;10.90;100.00;154158.50;5038235;28;22270;-74
2022/10/01 11:06:17;;;;;;;2.30;1.50;;;;;;;11.04;100.00;154194.72;5037986;28;20881;-74
2022/10/01 11:08:45;;;;;;;3.10;1.70;;;;;;;11.16;100.00;154224.53;5037411;28;20448;-74
2022/10/01 11:11:31;;;;;;;1.37;1.03;;;;;;;11.19;100.00;154232.31;5039058;28;20451;-74
2022/10/01 11:14:08;;;;;;;1.80;1.50;;;;;;;11.29;100.00;154258.22;5047147;28;20444;-74
2022/10/01 11:17:08;;;;;;;1.87;1.67;;;;;;;11.34;100.00;154271.16;5043426;28;20447;-74
2022/10/01 11:19:54;;;;;;;2.23;1.50;;;;;;;11.36;100.00;154276.34;5044887;28;20502;-88
2022/10/01 11:22:33;;;;;;;2.10;1.40;;;;;;;11.40;100.00;154286.72;5049794;28;20431;-87
2022/10/01 11:25:13;;;;;;;1.77;1.33;;;;;;;11.32;100.00;154267.31;5056157;28;20442;-88
2022/10/01 11:27:45;;;;;;;1.90;1.37;;;;;;;11.34;100.00;154272.47;5060355;28;20421;-87
2022/10/01 11:30:16;;;;;;;1.57;1.17;;;;;;;11.41;100.00;154289.34;5058679;28;20457;-87
2022/10/01 11:32:45;;;;;;;3.30;2.00;;;;;;;11.40;100.00;154288.03;5042931;28;20965;-88
2022/10/01 11:35:46;;;;;;;1.77;1.27;;;;;;;11.38;100.00;154281.56;5040620;28;20760;-87